createdAt,value
2022-08-28T00:01:01.936Z,19.50
2022-08-28T00:03:35.329Z,19.40
2022-08-28T00:06:06.265Z,19.50
2022-08-28T00:08:36.846Z,19.50
2022-08-28T00:11:07.593Z,19.40
2022-08-28T00:13:38.120Z,19.40
2022-08-28T00:16:09.683Z,19.40
2022-08-28T00:18:42.761Z,19.40
2022-08-28T00:21:13.495Z,19.40
2022-08-28T00:23:44.180Z,19.40
2022-08-28T00:26:34.787Z,19.40
2022-08-28T00:29:03.916Z,19.40
2022-08-28T00:31:34.362Z,19.40
2022-08-28T00:34:07.515Z,19.40
2022-08-28T00:36:38.213Z,19.40
2022-08-28T00:39:10.588Z,19.30
2022-08-28T00:41:43.123Z,19.40
2022-08-28T00:44:18.492Z,19.40
2022-08-28T00:46:52.634Z,19.30
2022-08-28T00:49:30.980Z,19.40
2022-08-28T00:52:12.062Z,19.30
2022-08-28T00:54:47.787Z,19.30
2022-08-28T00:57:35.593Z,19.30
2022-08-28T01:00:11.083Z,19.30
2022-08-28T01:02:41.419Z,19.20
2022-08-28T01:05:14.861Z,19.20
2022-08-28T01:07:45.897Z,19.20
2022-08-28T01:10:25.077Z,19.20
2022-08-28T01:12:57.084Z,19.20
2022-08-28T01:15:34.378Z,19.20
2022-08-28T01:18:09.789Z,19.10
2022-08-28T01:20:51.857Z,19.10
2022-08-28T01:23:40.009Z,19.10
2022-08-28T01:26:11.763Z,19.10
2022-08-28T01:28:42.771Z,19.00
2022-08-28T01:31:14.599Z,19.00
2022-08-28T01:33:45.840Z,18.90
2022-08-28T01:36:18.016Z,18.90
2022-08-28T01:38:57.410Z,18.90
2022-08-28T01:41:29.693Z,18.90
2022-08-28T01:44:00.376Z,18.80
2022-08-28T01:46:31.404Z,18.80
2022-08-28T01:49:02.100Z,18.80
2022-08-28T01:51:35.027Z,18.70
2022-08-28T01:54:12.841Z,18.80
2022-08-28T01:56:44.821Z,18.70
2022-08-28T01:59:17.116Z,18.70
2022-08-28T02:01:48.083Z,18.60
2022-08-28T02:04:18.913Z,18.60
2022-08-28T02:06:53.632Z,18.50
2022-08-28T02:09:26.432Z,18.50
2022-08-28T02:11:57.578Z,18.60
2022-08-28T02:14:28.125Z,18.50
2022-08-28T02:16:58.866Z,18.50
2022-08-28T02:19:29.245Z,18.50
2022-08-28T02:21:59.707Z,18.40
2022-08-28T02:24:32.452Z,18.40
2022-08-28T02:27:02.829Z,18.40
2022-08-28T02:29:33.030Z,18.40
2022-08-28T02:32:05.996Z,18.30
2022-08-28T02:34:36.573Z,18.40
2022-08-28T02:37:08.965Z,18.30
2022-08-28T02:39:42.537Z,18.30
2022-08-28T02:42:12.966Z,18.30
2022-08-28T02:44:45.445Z,18.20
2022-08-28T02:47:16.032Z,18.20
2022-08-28T02:49:46.764Z,18.20
2022-08-28T02:52:17.043Z,18.20
2022-08-28T02:54:49.904Z,18.20
2022-08-28T02:57:20.090Z,18.10
2022-08-28T02:59:50.685Z,18.10
2022-08-28T03:02:20.962Z,18.10
2022-08-28T03:04:51.541Z,18.10
2022-08-28T03:07:22.860Z,18.10
2022-08-28T03:09:55.698Z,18.10
2022-08-28T03:12:27.409Z,18.10
2022-08-28T03:14:58.272Z,18.10
2022-08-28T03:17:28.885Z,18.10
2022-08-28T03:19:59.248Z,18.10
2022-08-28T03:22:41.795Z,18.10
2022-08-28T03:25:15.732Z,18.10
2022-08-28T03:27:46.301Z,18.10
2022-08-28T03:30:17.799Z,18.00
2022-08-28T03:32:48.520Z,18.00
2022-08-28T03:35:20.429Z,18.00
2022-08-28T03:37:50.659Z,18.00
2022-08-28T03:40:24.177Z,18.00
2022-08-28T03:42:54.574Z,18.00
2022-08-28T03:45:25.213Z,18.00
2022-08-28T03:47:57.140Z,18.00
2022-08-28T03:50:28.498Z,18.00
2022-08-28T03:52:59.866Z,17.90
2022-08-28T03:55:32.849Z,18.00
2022-08-28T03:58:03.194Z,18.00
2022-08-28T04:00:34.026Z,17.90
2022-08-28T04:03:04.678Z,17.90
2022-08-28T04:05:35.197Z,17.90
2022-08-28T04:08:06.395Z,17.90
2022-08-28T04:10:39.447Z,17.90
2022-08-28T04:13:09.628Z,18.00
2022-08-28T04:15:40.076Z,17.90
2022-08-28T04:18:10.619Z,17.90
2022-08-28T04:20:41.596Z,17.90
2022-08-28T04:23:16.763Z,17.80
2022-08-28T04:25:49.687Z,17.80
2022-08-28T04:28:20.573Z,17.90
2022-08-28T04:30:50.765Z,17.80
2022-08-28T04:33:21.433Z,17.80
2022-08-28T04:35:51.658Z,17.80
2022-08-28T04:38:22.120Z,17.80
2022-08-28T04:40:54.924Z,17.70
2022-08-28T04:43:25.436Z,17.80
2022-08-28T04:45:56.810Z,17.80
2022-08-28T04:48:27.676Z,17.80
2022-08-28T04:50:58.300Z,17.80
2022-08-28T04:53:29.706Z,17.80
2022-08-28T04:56:02.864Z,17.70
2022-08-28T04:58:34.284Z,17.70
2022-08-28T05:01:11.345Z,17.70
2022-08-28T05:03:42.597Z,17.70
2022-08-28T05:06:15.399Z,17.70
2022-08-28T05:08:46.060Z,17.70
2022-08-28T05:11:34.418Z,17.60
2022-08-28T05:14:07.449Z,17.60
2022-08-28T05:16:43.544Z,17.60
2022-08-28T05:19:14.394Z,17.60
2022-08-28T05:21:44.994Z,17.60
2022-08-28T05:24:15.505Z,17.60
2022-08-28T05:26:49.567Z,17.60
2022-08-28T05:29:20.376Z,17.60
2022-08-28T05:31:52.711Z,17.60
2022-08-28T05:34:23.873Z,17.50
2022-08-28T05:36:54.042Z,17.60
2022-08-28T05:39:24.565Z,17.60
2022-08-28T05:41:57.577Z,17.60
2022-08-28T05:44:27.790Z,17.60
2022-08-28T05:46:58.213Z,17.60
2022-08-28T05:49:28.612Z,17.60
2022-08-28T05:52:01.303Z,17.70
2022-08-28T05:54:31.634Z,17.60
2022-08-28T05:57:04.507Z,17.60
2022-08-28T05:59:34.815Z,17.70
2022-08-28T06:02:05.488Z,17.60
2022-08-28T06:04:36.562Z,17.70
2022-08-28T06:07:08.295Z,17.70
2022-08-28T06:09:38.673Z,17.70
2022-08-28T06:12:12.634Z,17.70
2022-08-28T06:14:44.883Z,17.60
2022-08-28T06:17:15.352Z,17.70
2022-08-28T06:19:45.832Z,17.60
2022-08-28T06:22:16.141Z,17.60
2022-08-28T06:24:46.406Z,17.60
2022-08-28T06:27:19.357Z,17.60
2022-08-28T06:29:49.581Z,17.60
2022-08-28T06:32:19.928Z,17.60
2022-08-28T06:34:50.355Z,17.50
2022-08-28T06:37:20.724Z,17.60
2022-08-28T06:39:51.041Z,17.50
2022-08-28T06:42:24.314Z,17.60
2022-08-28T06:44:54.621Z,17.50
2022-08-28T06:47:25.111Z,17.50
2022-08-28T06:49:55.742Z,17.50
2022-08-28T06:52:25.917Z,17.40
2022-08-28T06:54:56.231Z,17.40
2022-08-28T06:57:29.312Z,17.40
2022-08-28T06:59:59.945Z,17.30
2022-08-28T07:02:30.286Z,17.30
2022-08-28T07:05:00.696Z,17.20
2022-08-28T07:07:31.767Z,17.20
2022-08-28T07:10:02.969Z,17.20
2022-08-28T07:12:35.912Z,17.30
2022-08-28T07:15:07.357Z,17.50
2022-08-28T07:17:38.388Z,17.50
2022-08-28T07:20:10.842Z,17.50
2022-08-28T07:22:41.905Z,17.40
2022-08-28T07:25:14.073Z,17.30
2022-08-28T07:27:46.989Z,17.20
2022-08-28T07:30:17.683Z,17.30
2022-08-28T07:32:51.680Z,17.30
2022-08-28T07:35:22.575Z,17.20
2022-08-28T07:37:52.868Z,17.30
2022-08-28T07:40:23.363Z,17.20
2022-08-28T07:43:08.694Z,17.30
2022-08-28T07:45:39.183Z,17.30
2022-08-28T07:48:11.612Z,17.40
2022-08-28T07:50:42.179Z,17.40
2022-08-28T07:53:12.827Z,17.40
2022-08-28T07:55:43.150Z,17.50
2022-08-28T07:58:16.750Z,17.50
2022-08-28T08:00:47.300Z,17.60
2022-08-28T08:03:18.358Z,17.80
2022-08-28T08:05:55.799Z,17.80
2022-08-28T08:08:26.397Z,17.70
2022-08-28T08:11:02.182Z,17.70
2022-08-28T08:13:37.004Z,17.70
2022-08-28T08:16:11.437Z,17.70
2022-08-28T08:18:43.734Z,17.70
2022-08-28T08:21:17.026Z,17.60
2022-08-28T08:23:47.777Z,17.60
2022-08-28T08:26:21.695Z,17.50
2022-08-28T08:28:55.753Z,17.50
2022-08-28T08:31:29.832Z,17.40
2022-08-28T08:34:04.282Z,17.30
2022-08-28T08:36:38.206Z,17.40
2022-08-28T08:39:10.499Z,17.40
2022-08-28T08:41:48.459Z,17.50
2022-08-28T08:44:33.430Z,17.50
2022-08-28T08:47:14.831Z,17.40
2022-08-28T08:49:53.293Z,17.40
2022-08-28T08:52:47.639Z,17.40
2022-08-28T08:55:35.641Z,17.40
2022-08-28T08:58:11.963Z,17.60
2022-08-28T09:00:57.167Z,17.60
2022-08-28T09:03:45.324Z,17.40
2022-08-28T09:06:27.655Z,17.50
2022-08-28T09:09:02.586Z,17.50
2022-08-28T09:11:50.348Z,17.50
2022-08-28T09:14:39.400Z,17.40
2022-08-28T09:17:15.026Z,17.40
2022-08-28T09:19:45.376Z,17.40
2022-08-28T09:22:16.206Z,17.30
2022-08-28T09:24:46.448Z,17.30
2022-08-28T09:27:28.311Z,17.40
2022-08-28T09:30:02.596Z,17.40
2022-08-28T09:32:44.672Z,17.40
2022-08-28T09:35:28.138Z,17.40
2022-08-28T09:37:59.315Z,17.40
2022-08-28T09:40:52.787Z,17.40
2022-08-28T09:43:31.567Z,17.50
2022-08-28T09:46:05.309Z,17.50
2022-08-28T09:48:43.612Z,17.60
2022-08-28T09:51:16.874Z,17.60
2022-08-28T09:54:02.697Z,17.60
2022-08-28T09:56:36.306Z,17.60
2022-08-28T09:59:11.799Z,17.50
2022-08-28T10:01:57.986Z,17.60
2022-08-28T10:04:52.919Z,17.60
2022-08-28T10:07:37.028Z,17.60
2022-08-28T10:10:23.624Z,17.60
2022-08-28T10:13:06.418Z,17.70
2022-08-28T10:15:54.922Z,17.70
2022-08-28T10:18:43.727Z,17.70
2022-08-28T10:21:24.698Z,17.70
2022-08-28T10:24:24.768Z,17.80
2022-08-28T10:27:09.364Z,17.70
2022-08-28T10:29:52.408Z,17.70
2022-08-28T10:33:00.212Z,17.60
2022-08-28T10:35:43.227Z,17.70
2022-08-28T10:38:21.705Z,17.70
2022-08-28T10:41:00.715Z,17.70
2022-08-28T10:43:37.969Z,17.80
2022-08-28T10:46:27.005Z,17.80
2022-08-28T10:49:05.577Z,17.90
2022-08-28T10:51:43.577Z,17.80
2022-08-28T10:54:28.219Z,17.90
2022-08-28T10:57:09.081Z,18.10
2022-08-28T10:59:41.849Z,18.20
2022-08-28T11:02:16.834Z,18.30
2022-08-28T11:04:49.523Z,18.30
2022-08-28T11:07:31.228Z,18.20
2022-08-28T11:10:22.701Z,18.30
2022-08-28T11:12:54.706Z,18.20
2022-08-28T11:15:43.863Z,18.20
2022-08-28T11:18:49.416Z,18.10
2022-08-28T11:21:24.184Z,18.20
2022-08-28T11:24:04.353Z,18.10
2022-08-28T11:26:44.948Z,18.20
2022-08-28T11:29:15.371Z,18.20
2022-08-28T11:31:45.715Z,18.30
2022-08-28T11:35:00.941Z,18.40
2022-08-28T11:37:42.783Z,18.40
2022-08-28T11:40:57.036Z,18.50
2022-08-28T11:43:42.603Z,18.60
2022-08-28T11:46:31.565Z,18.60
2022-08-28T11:49:05.183Z,18.60
2022-08-28T11:51:57.756Z,18.70
2022-08-28T11:54:46.374Z,18.70
2022-08-28T11:57:24.829Z,18.70
2022-08-28T12:00:14.993Z,18.80
2022-08-28T12:02:56.956Z,18.70
2022-08-28T12:05:57.349Z,18.70
2022-08-28T12:09:06.545Z,18.70
2022-08-28T12:12:05.806Z,18.70
2022-08-28T12:15:04.831Z,18.70
2022-08-28T12:17:52.820Z,18.60
2022-08-28T12:21:00.644Z,18.60
2022-08-28T12:23:43.183Z,18.50
2022-08-28T12:26:28.592Z,18.50
2022-08-28T12:29:01.593Z,18.40
2022-08-28T12:32:19.004Z,18.40
2022-08-28T12:35:16.644Z,18.40
2022-08-28T12:37:53.028Z,18.40
2022-08-28T12:40:28.372Z,18.40
2022-08-28T12:43:02.565Z,18.40
2022-08-28T12:45:38.414Z,18.40
2022-08-28T12:48:20.211Z,18.40
2022-08-28T12:50:51.239Z,18.50
2022-08-28T12:53:22.904Z,18.60
2022-08-28T12:55:53.259Z,18.70
2022-08-28T12:58:36.137Z,18.70
2022-08-28T13:01:10.246Z,18.80
2022-08-28T13:03:55.534Z,18.90
2022-08-28T13:06:29.918Z,18.80
2022-08-28T13:09:05.589Z,18.80
2022-08-28T13:11:40.674Z,18.70
2022-08-28T13:14:11.073Z,18.60
2022-08-28T13:16:44.830Z,18.60
2022-08-28T13:19:29.812Z,18.60
2022-08-28T13:22:02.776Z,18.50
2022-08-28T13:24:48.612Z,18.50
2022-08-28T13:27:26.447Z,18.50
2022-08-28T13:30:07.209Z,18.50
2022-08-28T13:32:40.555Z,18.40
2022-08-28T13:35:35.687Z,18.20
2022-08-28T13:38:10.100Z,18.20
2022-08-28T13:40:58.678Z,18.20
2022-08-28T13:43:33.173Z,18.30
2022-08-28T13:46:03.562Z,18.30
2022-08-28T13:48:34.088Z,18.30
2022-08-28T13:51:14.269Z,18.30
2022-08-28T13:53:52.456Z,18.20
2022-08-28T13:56:22.925Z,18.20
2022-08-28T13:58:57.559Z,18.20
2022-08-28T14:01:49.121Z,18.20
2022-08-28T14:04:17.079Z,18.20
2022-08-28T14:06:50.511Z,18.20
2022-08-28T14:09:21.231Z,18.20
2022-08-28T14:11:52.612Z,18.30
2022-08-28T14:14:22.994Z,18.20
2022-08-28T14:16:55.949Z,18.20
2022-08-28T14:19:26.412Z,18.20
2022-08-28T14:21:59.844Z,18.20
2022-08-28T14:24:31.123Z,18.30
2022-08-28T14:27:02.723Z,18.40
2022-08-28T14:29:33.938Z,18.60
2022-08-28T14:32:05.418Z,18.90
2022-08-28T14:34:35.922Z,19.10
2022-08-28T14:37:09.076Z,19.00
2022-08-28T14:39:39.279Z,19.20
2022-08-28T14:42:13.164Z,19.20
2022-08-28T14:44:43.660Z,19.40
2022-08-28T14:47:14.059Z,19.40
2022-08-28T14:49:44.834Z,19.40
2022-08-28T14:52:19.544Z,19.50
2022-08-28T14:54:50.144Z,19.40
2022-08-28T14:57:20.482Z,19.20
2022-08-28T14:59:50.929Z,19.30
2022-08-28T15:02:21.182Z,19.30
2022-08-28T15:04:51.744Z,19.30
2022-08-28T15:07:25.164Z,19.20
2022-08-28T15:09:55.631Z,19.30
2022-08-28T15:12:26.019Z,19.40
2022-08-28T15:14:57.142Z,19.60
2022-08-28T15:17:34.193Z,19.50
2022-08-28T15:20:05.517Z,19.70
2022-08-28T15:22:38.853Z,19.80
2022-08-28T15:25:10.328Z,19.80
2022-08-28T15:27:41.205Z,19.70
2022-08-28T15:30:13.923Z,19.90
2022-08-28T15:32:46.317Z,19.90
2022-08-28T15:35:16.731Z,20.00
2022-08-28T15:37:49.650Z,19.80
2022-08-28T15:40:32.636Z,19.70
2022-08-28T15:43:03.116Z,19.70
2022-08-28T15:45:33.524Z,19.70
2022-08-28T15:48:03.781Z,19.70
2022-08-28T15:50:34.752Z,19.70
2022-08-28T15:53:08.130Z,19.70
2022-08-28T15:55:38.446Z,19.60
2022-08-28T15:58:14.357Z,19.60
2022-08-28T16:00:45.394Z,19.60
2022-08-28T16:03:15.898Z,19.60
2022-08-28T16:05:47.124Z,19.60
2022-08-28T16:08:20.160Z,19.70
2022-08-28T16:10:51.812Z,19.70
2022-08-28T16:13:23.456Z,19.70
2022-08-28T16:15:53.867Z,19.70
2022-08-28T16:18:24.592Z,19.60
2022-08-28T16:20:55.005Z,19.70
2022-08-28T16:23:28.044Z,19.70
2022-08-28T16:25:58.413Z,19.70
2022-08-28T16:28:28.916Z,19.70
2022-08-28T16:30:59.337Z,19.70
2022-08-28T16:33:31.493Z,19.70
2022-08-28T16:36:03.935Z,19.70
2022-08-28T16:38:36.914Z,19.70
2022-08-28T16:41:07.625Z,19.70
2022-08-28T16:43:38.660Z,19.70
2022-08-28T16:46:14.373Z,19.70
2022-08-28T16:48:44.747Z,19.70
2022-08-28T16:51:15.806Z,19.70
2022-08-28T16:53:49.220Z,19.60
2022-08-28T16:56:21.204Z,19.60
2022-08-28T16:58:53.312Z,19.60
2022-08-28T17:01:25.655Z,19.60
2022-08-28T17:03:59.586Z,19.60
2022-08-28T17:06:33.614Z,19.60
2022-08-28T17:09:06.947Z,19.60
2022-08-28T17:11:37.556Z,19.50
2022-08-28T17:14:11.132Z,19.50
2022-08-28T17:16:41.542Z,19.40
2022-08-28T17:19:11.985Z,19.40
2022-08-28T17:21:54.658Z,19.40
2022-08-28T17:24:28.214Z,19.30
2022-08-28T17:27:03.236Z,19.30
2022-08-28T17:29:36.550Z,19.20
2022-08-28T17:32:08.134Z,19.20
2022-08-28T17:34:39.150Z,19.20
2022-08-28T17:37:11.118Z,19.10
2022-08-28T17:39:43.921Z,19.10
2022-08-28T17:42:14.156Z,19.10
2022-08-28T17:44:44.554Z,19.00
2022-08-28T17:47:15.124Z,18.90
2022-08-28T17:49:45.414Z,18.90
2022-08-28T17:52:15.799Z,18.90
2022-08-28T17:54:48.682Z,18.80
2022-08-28T17:57:19.015Z,18.70
2022-08-28T17:59:49.392Z,18.70
2022-08-28T18:02:19.812Z,18.70
2022-08-28T18:04:50.400Z,18.60
2022-08-28T18:07:21.083Z,18.50
2022-08-28T18:09:56.939Z,18.50
2022-08-28T18:12:27.424Z,18.50
2022-08-28T18:14:57.944Z,18.40
2022-08-28T18:17:28.470Z,18.40
2022-08-28T18:20:00.891Z,18.30
2022-08-28T18:22:32.373Z,18.30
2022-08-28T18:25:05.311Z,18.30
2022-08-28T18:27:36.778Z,18.20
2022-08-28T18:30:09.149Z,18.20
2022-08-28T18:32:39.480Z,18.10
2022-08-28T18:35:10.900Z,18.10
2022-08-28T18:37:41.746Z,18.10
2022-08-28T18:40:15.005Z,18.00
2022-08-28T18:42:45.796Z,18.00
2022-08-28T18:45:16.138Z,18.00
2022-08-28T18:47:48.812Z,17.90
2022-08-28T18:50:22.054Z,17.90
2022-08-28T18:52:53.549Z,17.80
2022-08-28T18:55:29.556Z,17.80
2022-08-28T18:58:03.816Z,17.80
2022-08-28T19:00:36.497Z,17.70
2022-08-28T19:03:08.249Z,17.60
2022-08-28T19:05:41.527Z,17.70
2022-08-28T19:08:12.171Z,17.60
2022-08-28T19:10:45.377Z,17.50
2022-08-28T19:13:15.705Z,17.50
2022-08-28T19:15:46.025Z,17.50
2022-08-28T19:18:16.261Z,17.40
2022-08-28T19:20:46.711Z,17.40
2022-08-28T19:23:17.968Z,17.40
2022-08-28T19:25:50.923Z,17.40
2022-08-28T19:28:21.149Z,17.30
2022-08-28T19:30:51.445Z,17.30
2022-08-28T19:33:22.105Z,17.30
2022-08-28T19:35:52.334Z,17.20
2022-08-28T19:38:22.555Z,17.20
2022-08-28T19:40:55.933Z,17.20
2022-08-28T19:43:31.130Z,17.20
2022-08-28T19:46:19.415Z,17.20
2022-08-28T19:48:51.401Z,17.20
2022-08-28T19:51:24.518Z,17.10
2022-08-28T19:53:58.637Z,17.10
2022-08-28T19:56:33.931Z,17.10
2022-08-28T19:59:07.818Z,17.10
2022-08-28T20:01:41.648Z,17.00
2022-08-28T20:04:13.620Z,17.00
2022-08-28T20:06:44.154Z,17.00
2022-08-28T20:09:14.989Z,16.90
2022-08-28T20:11:49.232Z,16.90
2022-08-28T20:14:21.359Z,16.90
2022-08-28T20:16:54.584Z,16.90
2022-08-28T20:19:25.748Z,16.90
2022-08-28T20:21:56.419Z,16.90
2022-08-28T20:24:27.263Z,16.90
2022-08-28T20:27:00.508Z,16.80
2022-08-28T20:29:31.228Z,16.80
2022-08-28T20:32:01.756Z,16.70
2022-08-28T20:34:33.292Z,16.70
2022-08-28T20:37:03.844Z,16.70
2022-08-28T20:39:34.345Z,16.70
2022-08-28T20:42:07.570Z,16.60
2022-08-28T20:44:37.979Z,16.60
2022-08-28T20:47:09.857Z,16.60
2022-08-28T20:49:40.288Z,16.50
2022-08-28T20:52:11.016Z,16.50
2022-08-28T20:54:42.819Z,16.40
2022-08-28T20:57:18.991Z,16.40
2022-08-28T20:59:50.421Z,16.30
2022-08-28T21:02:24.260Z,16.30
2022-08-28T21:04:55.362Z,16.30
2022-08-28T21:07:28.189Z,16.30
2022-08-28T21:10:05.088Z,16.20
2022-08-28T21:12:42.158Z,16.20
2022-08-28T21:15:15.581Z,16.10
2022-08-28T21:17:45.941Z,16.10
2022-08-28T21:20:20.220Z,16.10
2022-08-28T21:22:50.851Z,16.10
2022-08-28T21:25:24.697Z,16.00
2022-08-28T21:27:57.678Z,16.00
2022-08-28T21:30:30.816Z,16.00
2022-08-28T21:33:01.204Z,15.90
2022-08-28T21:35:31.874Z,15.90
2022-08-28T21:38:02.235Z,15.80
2022-08-28T21:40:32.529Z,15.70
2022-08-28T21:43:05.630Z,15.70
2022-08-28T21:45:35.996Z,15.70
2022-08-28T21:48:07.124Z,15.70
2022-08-28T21:50:37.468Z,15.70
2022-08-28T21:53:07.842Z,15.70
2022-08-28T21:55:38.071Z,15.60
2022-08-28T21:58:11.511Z,15.60
2022-08-28T22:00:42.501Z,15.50
2022-08-28T22:03:12.893Z,15.50
2022-08-28T22:05:45.733Z,15.40
2022-08-28T22:08:18.052Z,15.40
2022-08-28T22:10:49.597Z,15.30
2022-08-28T22:13:26.166Z,15.40
2022-08-28T22:15:57.113Z,15.40
2022-08-28T22:18:32.080Z,15.40
2022-08-28T22:21:17.714Z,15.30
2022-08-28T22:23:49.495Z,15.40
2022-08-28T22:26:22.782Z,15.40
2022-08-28T22:28:56.170Z,15.40
2022-08-28T22:31:27.508Z,15.40
2022-08-28T22:33:58.093Z,15.40
2022-08-28T22:36:29.357Z,15.30
2022-08-28T22:39:00.703Z,15.30
2022-08-28T22:41:31.526Z,15.20
2022-08-28T22:44:04.559Z,15.20
2022-08-28T22:46:36.138Z,15.10
2022-08-28T22:49:06.597Z,15.10
2022-08-28T22:51:37.685Z,15.10
2022-08-28T22:54:08.888Z,15.00
2022-08-28T22:56:39.122Z,15.00
2022-08-28T22:59:12.285Z,15.00
2022-08-28T23:01:43.759Z,15.00
2022-08-28T23:04:14.321Z,15.00
2022-08-28T23:06:44.793Z,15.00
2022-08-28T23:09:15.179Z,14.90
2022-08-28T23:11:45.586Z,14.90
2022-08-28T23:14:18.665Z,14.90
2022-08-28T23:16:49.278Z,14.90
2022-08-28T23:19:21.410Z,14.90
2022-08-28T23:21:52.554Z,14.90
2022-08-28T23:24:22.976Z,14.90
2022-08-28T23:26:53.337Z,14.90
2022-08-28T23:29:26.422Z,14.90
2022-08-28T23:31:56.840Z,14.90
2022-08-28T23:34:28.732Z,15.00
2022-08-28T23:36:59.093Z,15.00
2022-08-28T23:39:31.345Z,14.90
2022-08-28T23:42:01.672Z,14.90
2022-08-28T23:44:34.667Z,14.90
2022-08-28T23:47:05.825Z,14.90
2022-08-28T23:49:41.574Z,14.90
2022-08-28T23:52:13.490Z,14.80
2022-08-28T23:54:43.820Z,14.80
2022-08-28T23:57:15.166Z,14.80
2022-08-28T23:59:48.442Z,14.80
